createdAt,value
2024-05-09T00:03:49.734Z,9.82
2024-05-09T00:08:53.947Z,9.77
2024-05-09T00:14:00.549Z,9.73
2024-05-09T00:19:05.011Z,9.79
2024-05-09T00:24:09.642Z,9.82
2024-05-09T00:29:14.236Z,9.85
2024-05-09T00:34:18.550Z,9.75
2024-05-09T00:39:23.726Z,9.70
2024-05-09T00:44:28.332Z,9.72
2024-05-09T00:49:33.300Z,9.82
2024-05-09T00:54:38.026Z,9.83
2024-05-09T00:59:42.320Z,9.82
2024-05-09T01:04:46.925Z,9.74
2024-05-09T01:09:51.271Z,9.72
2024-05-09T01:14:55.937Z,9.86
2024-05-09T01:20:00.745Z,9.71
2024-05-09T01:25:05.104Z,9.77
2024-05-09T01:30:16.931Z,9.68
2024-05-09T01:35:25.240Z,9.77
2024-05-09T01:40:37.171Z,9.67
2024-05-09T01:45:44.451Z,9.65
2024-05-09T01:50:48.939Z,9.62
2024-05-09T01:55:53.496Z,9.67
2024-05-09T02:00:57.804Z,9.63
2024-05-09T02:06:02.376Z,9.69
2024-05-09T02:11:08.991Z,9.66
2024-05-09T02:16:13.548Z,9.74
2024-05-09T02:21:17.930Z,9.80
2024-05-09T02:26:22.311Z,9.83
2024-05-09T02:31:26.598Z,9.79
2024-05-09T02:36:31.064Z,9.77
2024-05-09T02:41:35.418Z,9.73
2024-05-09T02:46:40.028Z,9.72
2024-05-09T02:51:44.230Z,9.79
2024-05-09T02:56:48.423Z,9.69
2024-05-09T03:01:54.205Z,9.66
2024-05-09T03:06:58.654Z,9.58
2024-05-09T03:12:04.928Z,9.67
2024-05-09T03:17:09.282Z,9.67
2024-05-09T03:22:14.212Z,9.76
2024-05-09T03:27:19.661Z,9.78
2024-05-09T03:32:25.700Z,9.80
2024-05-09T03:37:30.023Z,9.81
2024-05-09T03:42:34.301Z,9.75
2024-05-09T03:47:38.598Z,9.79
2024-05-09T03:52:43.650Z,9.67
2024-05-09T03:57:48.443Z,9.67
2024-05-09T04:02:52.983Z,9.74
2024-05-09T04:07:57.667Z,9.78
2024-05-09T04:13:02.174Z,9.74
2024-05-09T04:18:06.917Z,9.94
2024-05-09T04:23:11.840Z,10.01
2024-05-09T04:28:16.825Z,9.92
2024-05-09T04:33:21.416Z,9.97
2024-05-09T04:38:25.919Z,10.10
2024-05-09T04:43:30.228Z,9.97
2024-05-09T04:48:34.723Z,10.02
2024-05-09T04:53:39.275Z,9.98
2024-05-09T04:58:44.283Z,10.09
2024-05-09T05:03:49.174Z,10.04
2024-05-09T05:08:53.777Z,10.27
2024-05-09T05:13:58.324Z,10.32
2024-05-09T05:19:07.551Z,10.67
2024-05-09T05:24:22.044Z,10.54
2024-05-09T05:29:29.038Z,10.56
2024-05-09T05:34:33.644Z,10.65
2024-05-09T05:39:38.612Z,10.89
2024-05-09T05:44:44.723Z,10.99
2024-05-09T05:49:49.269Z,11.25
2024-05-09T05:54:54.162Z,11.54
2024-05-09T05:59:58.341Z,11.43
2024-05-09T06:05:06.591Z,11.50
2024-05-09T06:10:17.388Z,11.78
2024-05-09T06:15:26.066Z,12.34
2024-05-09T06:20:35.885Z,12.28
2024-05-09T06:25:42.708Z,12.45
2024-05-09T06:30:47.291Z,12.25
2024-05-09T06:35:54.630Z,12.52
2024-05-09T06:40:58.852Z,12.84
2024-05-09T06:46:03.111Z,12.41
2024-05-09T06:51:07.459Z,12.93
2024-05-09T06:56:12.055Z,13.04
2024-05-09T07:01:16.378Z,13.80
2024-05-09T07:06:20.826Z,14.27
2024-05-09T07:11:25.131Z,13.80
2024-05-09T07:16:31.129Z,14.15
2024-05-09T07:21:35.820Z,13.56
2024-05-09T07:26:40.215Z,13.79
2024-05-09T07:31:45.434Z,14.62
2024-05-09T07:36:50.386Z,14.84
2024-05-09T07:41:57.110Z,14.40
2024-05-09T07:57:16.469Z,14.91
2024-05-09T08:02:21.378Z,14.19
2024-05-09T08:07:26.698Z,14.13
2024-05-09T08:12:30.908Z,14.22
2024-05-09T08:17:35.502Z,14.95
2024-05-09T08:22:39.894Z,15.31
2024-05-09T08:27:44.647Z,16.54
2024-05-09T08:32:49.003Z,17.22
2024-05-09T08:37:53.642Z,17.74
2024-05-09T08:42:58.574Z,17.27
2024-05-09T08:48:05.760Z,17.36
2024-05-09T08:53:10.530Z,17.17
2024-05-09T08:58:15.408Z,16.28
2024-05-09T09:03:20.404Z,16.38
2024-05-09T09:08:24.741Z,17.61
2024-05-09T09:13:28.937Z,17.24
2024-05-09T09:18:34.530Z,16.48
2024-05-09T09:23:38.907Z,16.99
2024-05-09T09:28:44.960Z,16.62
2024-05-09T09:33:51.057Z,16.62
2024-05-09T09:38:55.459Z,16.39
2024-05-09T09:43:59.793Z,16.64
2024-05-09T09:49:06.809Z,15.80
2024-05-09T09:54:11.313Z,15.47
2024-05-09T09:59:15.531Z,15.38
2024-05-09T10:04:20.589Z,15.14
2024-05-09T10:09:24.938Z,15.33
2024-05-09T10:14:31.051Z,15.84
2024-05-09T10:19:35.359Z,15.30
2024-05-09T10:24:43.492Z,15.79
2024-05-09T10:29:48.574Z,16.64
2024-05-09T10:34:54.711Z,16.34
2024-05-09T10:39:59.431Z,16.37
2024-05-09T10:45:06.835Z,17.10
2024-05-09T10:50:18.537Z,17.32
2024-05-09T10:55:29.881Z,17.66
2024-05-09T11:00:36.519Z,17.49
2024-05-09T11:05:41.416Z,17.68
2024-05-09T11:10:47.094Z,17.80
2024-05-09T11:15:51.395Z,18.00
2024-05-09T11:20:56.835Z,18.03
2024-05-09T11:26:01.435Z,17.64
2024-05-09T11:31:07.092Z,17.58
2024-05-09T11:36:12.165Z,17.54
2024-05-09T11:41:16.462Z,17.60
2024-05-09T11:46:20.914Z,17.67
2024-05-09T11:51:25.318Z,17.65
2024-05-09T11:56:29.572Z,18.41
2024-05-09T12:01:35.186Z,18.79
2024-05-09T12:06:39.573Z,19.19
2024-05-09T12:11:44.671Z,18.78
2024-05-09T12:16:48.974Z,18.92
2024-05-09T12:21:53.731Z,18.64
2024-05-09T12:26:58.571Z,18.86
2024-05-09T12:32:02.831Z,18.62
2024-05-09T12:37:07.280Z,18.33
2024-05-09T12:42:14.641Z,18.01
2024-05-09T12:47:26.560Z,18.12
2024-05-09T12:52:31.301Z,18.79
2024-05-09T12:57:35.549Z,18.40
2024-05-09T13:02:40.364Z,18.69
2024-05-09T13:07:47.855Z,19.28
2024-05-09T13:12:52.419Z,18.52
2024-05-09T13:17:59.441Z,17.87
2024-05-09T13:23:07.950Z,17.44
2024-05-09T13:28:13.194Z,17.33
2024-05-09T13:33:17.579Z,16.70
2024-05-09T13:38:22.569Z,16.61
2024-05-09T13:43:27.046Z,16.79
2024-05-09T13:48:31.925Z,17.05
2024-05-09T13:53:36.340Z,17.58
2024-05-09T13:58:40.528Z,17.82
2024-05-09T14:03:44.906Z,17.01
2024-05-09T14:08:49.778Z,17.67
2024-05-09T14:13:54.407Z,17.17
2024-05-09T14:19:01.965Z,17.41
2024-05-09T14:24:06.223Z,17.29
2024-05-09T14:29:10.608Z,17.38
2024-05-09T14:34:15.766Z,17.45
2024-05-09T14:39:20.359Z,17.67
2024-05-09T14:44:24.483Z,17.26
2024-05-09T14:49:28.718Z,17.78
2024-05-09T14:54:33.132Z,17.41
2024-05-09T14:59:37.389Z,17.32
2024-05-09T15:04:42.028Z,16.70
2024-05-09T15:09:47.551Z,16.99
2024-05-09T15:14:52.627Z,16.42
2024-05-09T15:19:56.952Z,16.96
2024-05-09T15:25:01.312Z,17.53
2024-05-09T15:30:10.356Z,17.50
2024-05-09T15:35:14.965Z,17.34
2024-05-09T15:40:26.843Z,17.18
2024-05-09T15:45:41.005Z,16.98
2024-05-09T15:50:47.250Z,16.82
2024-05-09T15:55:51.781Z,16.99
2024-05-09T16:00:56.614Z,16.81
2024-05-09T16:06:01.184Z,16.65
2024-05-09T16:11:05.596Z,16.42
2024-05-09T16:16:10.262Z,16.52
2024-05-09T16:21:15.024Z,16.56
2024-05-09T16:26:19.550Z,16.38
2024-05-09T16:31:24.464Z,16.42
2024-05-09T16:36:29.104Z,16.40
2024-05-09T16:41:33.657Z,16.45
2024-05-09T16:46:37.994Z,16.57
2024-05-09T16:51:42.468Z,16.42
2024-05-09T16:56:46.744Z,16.30
2024-05-09T17:01:51.151Z,16.34
2024-05-09T17:06:55.618Z,16.24
2024-05-09T17:12:00.412Z,16.35
2024-05-09T17:17:04.949Z,16.43
2024-05-09T17:22:09.819Z,16.14
2024-05-09T17:27:14.518Z,16.19
2024-05-09T17:32:19.816Z,15.94
2024-05-09T17:37:24.551Z,15.66
2024-05-09T17:42:29.385Z,15.36
2024-05-09T17:47:33.837Z,15.20
2024-05-09T17:52:38.488Z,15.08
2024-05-09T17:57:43.896Z,14.89
2024-05-09T18:02:48.885Z,14.71
2024-05-09T18:07:55.965Z,14.61
2024-05-09T18:13:01.203Z,14.49
2024-05-09T18:18:05.829Z,14.36
2024-05-09T18:23:10.726Z,14.17
2024-05-09T18:28:15.231Z,14.05
2024-05-09T18:33:21.726Z,13.96
2024-05-09T18:38:31.915Z,13.73
2024-05-09T18:43:44.928Z,13.57
2024-05-09T18:48:51.561Z,13.45
2024-05-09T18:53:56.157Z,13.26
2024-05-09T18:59:00.713Z,13.07
2024-05-09T19:04:05.752Z,13.05
2024-05-09T19:09:10.199Z,12.91
2024-05-09T19:14:14.660Z,12.62
2024-05-09T19:19:19.151Z,12.50
2024-05-09T19:24:24.319Z,12.35
2024-05-09T19:29:28.442Z,12.21
2024-05-09T19:34:32.621Z,12.08
2024-05-09T19:39:37.484Z,11.95
2024-05-09T19:44:42.406Z,11.80
2024-05-09T19:49:47.157Z,11.71
2024-05-09T19:54:52.979Z,11.59
2024-05-09T19:59:58.456Z,11.51
2024-05-09T20:05:03.818Z,11.38
2024-05-09T20:10:16.476Z,11.32
2024-05-09T20:15:27.291Z,11.21
2024-05-09T20:20:38.096Z,11.12
2024-05-09T20:25:45.961Z,11.06
2024-05-09T20:30:50.271Z,11.11
2024-05-09T20:36:01.495Z,10.98
2024-05-09T20:41:06.275Z,10.88
2024-05-09T20:46:10.714Z,10.79
2024-05-09T20:51:14.931Z,10.67
2024-05-09T20:56:19.202Z,10.58
2024-05-09T21:01:23.717Z,10.48
2024-05-09T21:06:28.009Z,10.42
2024-05-09T21:11:32.579Z,10.35
2024-05-09T21:16:38.502Z,10.29
2024-05-09T21:21:43.309Z,10.24
2024-05-09T21:26:47.953Z,10.20
2024-05-09T21:31:52.517Z,10.14
2024-05-09T21:36:56.880Z,10.07
2024-05-09T21:42:02.804Z,9.99
2024-05-09T21:47:08.190Z,9.87
2024-05-09T21:52:13.874Z,9.81
2024-05-09T21:57:18.105Z,9.73
2024-05-09T22:02:22.507Z,9.71
2024-05-09T22:07:27.327Z,9.61
2024-05-09T22:12:31.526Z,9.56
2024-05-09T22:17:36.082Z,9.55
2024-05-09T22:22:41.496Z,9.54
2024-05-09T22:27:45.968Z,9.50
2024-05-09T22:32:50.389Z,9.47
2024-05-09T22:37:55.335Z,9.36
2024-05-09T22:42:59.840Z,9.32
2024-05-09T22:48:04.490Z,9.29
2024-05-09T22:53:09.395Z,9.23
2024-05-09T22:58:14.594Z,9.23
2024-05-09T23:03:21.901Z,9.11
2024-05-09T23:08:26.848Z,8.97
2024-05-09T23:13:31.232Z,8.84
2024-05-09T23:18:35.563Z,8.75
2024-05-09T23:23:39.756Z,8.60
2024-05-09T23:28:43.962Z,8.58
2024-05-09T23:33:51.849Z,8.58
2024-05-09T23:38:57.727Z,8.51
2024-05-09T23:44:04.305Z,8.47
2024-05-09T23:49:09.112Z,8.46
2024-05-09T23:54:13.826Z,8.43
2024-05-09T23:59:18.643Z,8.34
